Time;durP1;ratioP1;P1;durP2;ratioP2;P2;SDS_P1;SDS_P2;PMS_P1;PMS_P2;Temp;Humidity;BMP_temperature;BMP_pressure;BME280_temperature;BME280_humidity;BME280_pressure;Samples;Min_cycle;Max_cycle;Signal;HPM_P1;HPM_P2
2022/01/19 00:00:51;;;;;;;12.70;8.23;;;1.70;99.90;;;;;;5035807;28;20196;-89
2022/01/19 00:03:17;;;;;;;11.10;8.50;;;1.60;99.90;;;;;;5028082;28;20190;-90
2022/01/19 00:05:43;;;;;;;14.87;9.20;;;1.50;99.90;;;;;;5032576;28;20186;-89
2022/01/19 00:08:16;;;;;;;14.17;9.13;;;1.50;99.90;;;;;;5031803;28;20178;-89
2022/01/19 00:10:42;;;;;;;13.17;8.70;;;1.50;99.90;;;;;;5031294;28;20207;-89
2022/01/19 00:13:08;;;;;;;12.87;9.10;;;1.50;99.90;;;;;;5032688;28;20190;-89
2022/01/19 00:15:33;;;;;;;13.93;9.87;;;1.50;99.90;;;;;;5032521;28;20195;-90
2022/01/19 00:17:59;;;;;;;16.60;9.83;;;1.50;99.90;;;;;;5032489;28;20171;-89
2022/01/19 00:20:28;;;;;;;14.80;9.47;;;1.40;99.90;;;;;;5032379;28;20280;-89
2022/01/19 00:22:54;;;;;;;14.80;9.97;;;1.40;99.90;;;;;;5032112;28;20205;-90
2022/01/19 00:25:20;;;;;;;15.50;9.20;;;1.40;99.90;;;;;;5032113;28;20217;-90
2022/01/19 00:27:47;;;;;;;16.37;10.07;;;1.30;99.90;;;;;;5032021;28;20284;-89
2022/01/19 00:30:13;;;;;;;12.77;9.33;;;1.30;99.90;;;;;;5015804;28;20217;-89
2022/01/19 00:32:40;;;;;;;14.30;9.07;;;1.20;99.90;;;;;;5032187;28;20205;-89
2022/01/19 00:35:09;;;;;;;12.70;9.43;;;1.20;99.90;;;;;;5015403;28;20217;-89
2022/01/19 00:37:35;;;;;;;17.63;10.33;;;1.10;99.90;;;;;;5015671;28;20186;-90
2022/01/19 00:40:01;;;;;;;14.17;9.20;;;1.10;99.90;;;;;;5031393;28;20185;-89
2022/01/19 00:42:27;;;;;;;13.90;9.70;;;1.10;99.90;;;;;;5015842;28;20300;-89
2022/01/19 00:44:53;;;;;;;17.97;10.67;;;1.00;99.90;;;;;;5015247;28;20730;-89
2022/01/19 00:47:19;;;;;;;16.93;9.80;;;1.00;99.90;;;;;;5031814;28;20277;-89
2022/01/19 00:49:45;;;;;;;16.00;10.43;;;0.90;99.90;;;;;;5014951;28;20300;-89
2022/01/19 00:52:12;;;;;;;13.47;9.73;;;1.00;99.90;;;;;;5031511;28;20740;-89
2022/01/19 00:54:41;;;;;;;13.27;9.83;;;1.00;99.90;;;;;;5015555;28;20209;-89
2022/01/19 00:57:08;;;;;;;14.90;9.73;;;1.00;99.90;;;;;;5015059;28;20190;-90
2022/01/19 00:59:34;;;;;;;18.33;10.77;;;1.10;99.90;;;;;;5015035;28;20198;-89
2022/01/19 01:02:01;;;;;;;15.37;9.80;;;1.10;99.90;;;;;;5031608;28;20240;-89
2022/01/19 01:04:27;;;;;;;14.57;10.13;;;1.10;99.90;;;;;;5031797;28;20193;-89
2022/01/19 01:06:54;;;;;;;15.80;9.90;;;1.10;99.90;;;;;;5068032;28;20182;-89
2022/01/19 01:09:22;;;;;;;13.50;10.13;;;1.10;99.90;;;;;;5067456;28;20263;-90
2022/01/19 01:11:59;;;;;;;15.73;10.13;;;1.20;99.90;;;;;;5068159;28;20209;-89
2022/01/19 01:20:01;;;;;;;15.07;9.63;;;1.20;99.90;;;;;;5067647;28;20209;-90
2022/01/19 01:22:27;;;;;;;14.33;9.70;;;1.20;99.90;;;;;;5067275;28;20223;-89
2022/01/19 01:24:53;;;;;;;13.83;9.77;;;1.20;99.90;;;;;;5067699;28;20244;-89
2022/01/19 01:27:19;;;;;;;16.27;10.63;;;1.20;99.90;;;;;;5067410;28;20673;-89
2022/01/19 01:29:45;;;;;;;17.17;9.90;;;1.20;99.90;;;;;;5067634;28;20210;-90
2022/01/19 01:32:11;;;;;;;13.80;9.97;;;1.10;99.90;;;;;;5067750;28;20201;-90
2022/01/19 01:34:37;;;;;;;13.90;10.00;;;1.10;99.90;;;;;;5052226;28;20177;-90
2022/01/19 01:37:03;;;;;;;15.33;10.63;;;1.10;99.90;;;;;;5034255;28;20188;-90
2022/01/19 01:39:29;;;;;;;14.73;10.33;;;1.10;99.90;;;;;;5034313;28;20185;-90
2022/01/19 01:41:57;;;;;;;15.27;9.47;;;1.10;99.90;;;;;;5050796;28;20239;-90
2022/01/19 01:44:34;;;;;;;16.00;10.80;;;1.10;99.90;;;;;;5034982;28;20189;-89
2022/01/19 01:47:01;;;;;;;15.40;9.00;;;1.10;99.90;;;;;;5050834;28;20181;-90
2022/01/19 01:49:42;;;;;;;15.73;9.20;;;1.20;99.90;;;;;;5033800;28;20212;-90
2022/01/19 01:54:59;;;;;;;12.70;8.13;;;1.10;99.90;;;;;;5051136;28;20176;-89
2022/01/19 01:57:25;;;;;;;13.90;9.70;;;1.10;99.90;;;;;;5034706;28;20185;-89
2022/01/19 01:59:51;;;;;;;14.53;9.83;;;1.10;99.90;;;;;;5034411;28;20185;-90
2022/01/19 02:02:48;;;;;;;15.93;9.77;;;1.00;99.90;;;;;;5051797;28;20221;-89
2022/01/19 02:05:18;;;;;;;15.10;9.77;;;1.00;99.90;;;;;;5035430;28;20195;-89
2022/01/19 02:08:08;;;;;;;18.83;10.93;;;0.90;99.90;;;;;;5034591;28;20295;-89
2022/01/19 02:10:44;;;;;;;17.70;11.37;;;0.80;99.90;;;;;;5034884;28;20208;-89
2022/01/19 02:21:38;;;;;;;16.60;10.53;;;0.50;99.90;;;;;;5050546;28;20223;-89
2022/01/19 02:24:11;;;;;;;19.97;10.83;;;0.40;99.90;;;;;;5034776;28;20183;-89
2022/01/19 02:40:37;;;;;;;15.40;10.73;;;0.50;99.90;;;;;;5046662;28;20176;-89
2022/01/19 02:51:05;;;;;;;17.67;10.97;;;0.30;99.90;;;;;;5046475;28;20216;-90
2022/01/19 02:53:33;;;;;;;16.97;10.37;;;0.30;99.90;;;;;;5030000;28;20265;-89
2022/01/19 02:55:59;;;;;;;16.87;10.53;;;0.30;99.90;;;;;;5029844;28;20177;-90
2022/01/19 02:58:25;;;;;;;15.27;10.63;;;0.30;99.90;;;;;;5029313;28;20180;-89
2022/01/19 03:09:04;;;;;;;15.70;11.03;;;0.10;99.90;;;;;;5049032;28;20565;-89
2022/01/19 03:11:34;;;;;;;18.20;11.03;;;0.20;99.90;;;;;;5032666;28;20196;-89
2022/01/19 03:14:01;;;;;;;18.23;10.53;;;0.20;99.90;;;;;;5032441;28;20175;-89
2022/01/19 03:16:27;;;;;;;18.70;10.87;;;0.10;99.90;;;;;;5032940;28;20184;-89
2022/01/19 03:18:54;;;;;;;17.27;10.37;;;0.10;99.90;;;;;;5032430;28;20183;-89
2022/01/19 03:21:19;;;;;;;17.07;10.70;;;0.10;99.90;;;;;;5033037;28;20195;-89
2022/01/19 03:23:47;;;;;;;15.83;10.10;;;0.10;99.90;;;;;;5033075;28;20175;-89
2022/01/19 03:26:13;;;;;;;15.83;9.93;;;0.10;99.90;;;;;;5032653;28;20199;-90
2022/01/19 03:29:11;;;;;;;36.30;17.67;;;0.10;99.90;;;;;;5049835;28;20184;-89
2022/01/19 03:31:37;;;;;;;34.93;17.07;;;0.10;99.90;;;;;;5032496;28;20238;-89
2022/01/19 03:34:05;;;;;;;30.83;15.53;;;0.10;99.90;;;;;;5032583;28;20200;-90
2022/01/19 03:36:32;;;;;;;28.63;15.13;;;0.10;99.90;;;;;;5048985;28;20207;-89
2022/01/19 03:38:59;;;;;;;24.07;14.47;;;0.10;99.90;;;;;;5032553;28;20293;-89
2022/01/19 03:41:25;;;;;;;24.57;13.90;;;0.10;99.90;;;;;;5049169;28;20745;-89
2022/01/19 03:43:52;;;;;;;23.00;12.57;;;0.10;99.90;;;;;;5032825;28;20184;-90
2022/01/19 03:46:21;;;;;;;19.27;12.10;;;0.10;99.90;;;;;;5051868;28;20207;-89
2022/01/19 03:48:55;;;;;;;28.93;14.30;;;0.10;99.90;;;;;;5052716;28;20238;-89
2022/01/19 03:51:22;;;;;;;20.30;11.90;;;0.00;99.90;;;;;;5036380;28;20303;-90
2022/01/19 03:53:50;;;;;;;14.77;9.80;;;-0.10;99.90;;;;;;5036420;28;20219;-89
2022/01/19 03:56:17;;;;;;;17.37;10.17;;;-0.10;99.90;;;;;;5036042;28;20286;-89
2022/01/19 03:58:43;;;;;;;16.07;9.53;;;-0.20;99.90;;;;;;5036032;28;20176;-89
2022/01/19 04:01:10;;;;;;;19.00;10.73;;;-0.20;99.90;;;;;;5035939;28;20198;-89
2022/01/19 04:08:44;;;;;;;15.63;9.83;;;-0.10;99.90;;;;;;5052509;28;20188;-89
2022/01/19 04:11:10;;;;;;;14.83;9.73;;;-0.10;99.90;;;;;;5035927;28;20218;-89
2022/01/19 04:14:21;;;;;;;15.90;9.47;;;0.00;99.90;;;;;;5035843;28;20184;-89
2022/01/19 04:16:32;;;;;;;12.83;8.63;;;0.00;99.90;;;;;;5052436;28;20234;-89
2022/01/19 04:19:43;;;;;;;14.23;8.93;;;0.00;99.90;;;;;;5035727;28;20188;-90
2022/01/19 04:21:49;;;;;;;14.67;9.07;;;0.00;99.90;;;;;;5047078;28;20778;-89
2022/01/19 04:24:15;;;;;;;14.13;8.60;;;0.00;99.90;;;;;;5035631;28;20171;-90
2022/01/19 04:26:41;;;;;;;12.67;8.40;;;0.00;99.90;;;;;;5035508;28;20270;-89
2022/01/19 04:29:10;;;;;;;16.67;9.50;;;0.00;99.90;;;;;;5035915;28;20209;-90
2022/01/19 04:31:38;;;;;;;14.60;9.13;;;0.00;99.90;;;;;;5035700;28;20204;-89
2022/01/19 04:34:06;;;;;;;14.33;8.80;;;0.10;99.90;;;;;;5035813;28;20189;-90
2022/01/19 04:36:59;;;;;;;13.83;9.10;;;0.10;99.90;;;;;;5035848;28;20200;-90
2022/01/19 04:43:50;;;;;;;14.53;9.60;;;0.20;99.90;;;;;;5051849;28;20181;-89
2022/01/19 05:06:46;;;;;;;17.83;11.07;;;0.50;99.90;;;;;;5051556;28;20185;-89
2022/01/19 05:14:33;;;;;;;13.87;9.17;;;0.60;99.90;;;;;;5047650;28;20220;-90
2022/01/19 05:16:58;;;;;;;15.03;10.07;;;0.60;99.90;;;;;;5030307;28;20192;-90
2022/01/19 05:19:25;;;;;;;14.33;9.10;;;0.60;99.90;;;;;;5029446;28;20660;-89
2022/01/19 05:21:52;;;;;;;16.27;9.53;;;0.60;99.90;;;;;;5033062;28;20202;-90
2022/01/19 05:24:41;;;;;;;15.30;9.17;;;0.50;99.90;;;;;;5033722;28;20204;-89
2022/01/19 05:27:27;;;;;;;14.37;8.70;;;0.60;99.90;;;;;;5033393;28;20183;-89
2022/01/19 05:29:53;;;;;;;15.73;9.80;;;0.50;99.90;;;;;;5033439;28;20248;-90
2022/01/19 05:32:19;;;;;;;17.13;10.47;;;0.40;99.90;;;;;;5033659;28;20224;-90
2022/01/19 05:34:46;;;;;;;14.33;9.60;;;0.40;99.90;;;;;;5033344;28;20197;-90
2022/01/19 05:37:24;;;;;;;14.60;9.90;;;0.30;99.90;;;;;;5032723;28;20216;-90
2022/01/19 05:40:08;;;;;;;15.73;9.13;;;0.20;99.90;;;;;;5033676;28;20211;-90
2022/01/19 05:43:00;;;;;;;13.87;9.67;;;0.20;99.90;;;;;;5032961;28;20202;-88
2022/01/19 05:45:27;;;;;;;17.40;9.80;;;0.10;99.90;;;;;;5033607;28;20177;-89
2022/01/19 05:47:58;;;;;;;14.13;8.80;;;0.10;99.90;;;;;;5033108;28;20184;-90
2022/01/19 05:50:25;;;;;;;14.77;10.10;;;0.10;99.90;;;;;;5033045;28;20201;-90
2022/01/19 05:53:04;;;;;;;16.03;9.90;;;0.10;99.90;;;;;;5032850;28;20205;-90
2022/01/19 05:55:30;;;;;;;14.83;9.57;;;0.10;99.90;;;;;;5032730;28;20177;-90
2022/01/19 05:57:55;;;;;;;14.57;9.60;;;0.10;99.90;;;;;;5032199;28;20177;-90
2022/01/19 06:00:44;;;;;;;15.17;10.23;;;0.00;99.90;;;;;;5032282;28;20203;-89
2022/01/19 06:03:11;;;;;;;15.67;9.43;;;0.00;99.90;;;;;;5037664;28;20265;-90
2022/01/19 06:05:57;;;;;;;14.93;9.53;;;-0.10;99.90;;;;;;5020203;28;20187;-90
2022/01/19 06:08:41;;;;;;;20.20;10.07;;;-0.20;99.90;;;;;;5027644;28;20175;-88
2022/01/19 06:11:07;;;;;;;14.87;9.37;;;-0.20;99.90;;;;;;5039203;28;20208;-89
2022/01/19 06:13:34;;;;;;;14.87;9.60;;;-0.30;99.90;;;;;;5018420;28;20187;-89
2022/01/19 06:16:01;;;;;;;16.57;9.50;;;-0.40;99.90;;;;;;5022352;28;20202;-89
2022/01/19 06:18:28;;;;;;;14.93;8.80;;;-0.40;99.90;;;;;;5023602;28;20179;-89
2022/01/19 06:20:54;;;;;;;17.27;11.00;;;-0.50;99.90;;;;;;5021385;28;20252;-89
2022/01/19 06:23:25;;;;;;;17.10;10.80;;;-0.60;99.90;;;;;;5032861;28;20183;-89
2022/01/19 06:26:05;;;;;;;17.83;11.47;;;-0.70;99.90;;;;;;5054038;28;20293;-89
2022/01/19 06:28:32;;;;;;;16.90;10.60;;;-0.80;99.90;;;;;;5024614;28;20270;-89
2022/01/19 06:30:58;;;;;;;20.20;10.57;;;-0.80;99.90;;;;;;5025715;28;20288;-90
2022/01/19 06:33:24;;;;;;;17.97;11.37;;;-0.90;99.90;;;;;;5022839;28;20225;-89
2022/01/19 06:35:52;;;;;;;19.13;12.67;;;-0.90;99.90;;;;;;5022790;28;20234;-90
2022/01/19 06:38:25;;;;;;;21.57;13.07;;;-0.90;99.90;;;;;;5026797;28;20236;-89
2022/01/19 06:41:06;;;;;;;21.83;12.43;;;-0.90;99.90;;;;;;5024790;28;20203;-90
2022/01/19 06:43:34;;;;;;;18.63;11.43;;;-0.90;99.90;;;;;;5015554;28;20260;-90
2022/01/19 06:46:01;;;;;;;18.13;11.23;;;-0.80;99.90;;;;;;5019606;28;20211;-90
2022/01/19 06:48:27;;;;;;;19.07;10.93;;;-0.80;99.90;;;;;;5028126;28;20183;-90
2022/01/19 06:50:53;;;;;;;16.70;10.63;;;-0.90;99.90;;;;;;5016700;28;20214;-90
2022/01/19 06:53:27;;;;;;;17.00;11.10;;;-1.00;99.90;;;;;;5015386;28;20186;-90
2022/01/19 06:56:16;;;;;;;17.50;11.07;;;-1.00;99.90;;;;;;5031362;28;20302;-89
2022/01/19 06:58:42;;;;;;;23.90;11.23;;;-1.00;99.90;;;;;;5013423;28;20183;-90
2022/01/19 07:01:23;;;;;;;17.00;10.70;;;-0.90;99.90;;;;;;5015597;28;20270;-91
2022/01/19 07:04:05;;;;;;;16.47;10.43;;;-0.80;99.90;;;;;;5028563;28;20187;-90
2022/01/19 07:06:32;;;;;;;16.43;11.00;;;-0.70;99.90;;;;;;5033513;28;20545;-91
2022/01/19 07:09:16;;;;;;;18.03;10.73;;;-0.80;99.90;;;;;;5049743;28;20197;-90
2022/01/19 07:11:53;;;;;;;17.37;10.77;;;-0.70;99.90;;;;;;5035509;28;20201;-90
2022/01/19 07:14:19;;;;;;;17.30;10.80;;;-0.70;99.90;;;;;;5033201;28;20308;-90
2022/01/19 07:16:48;;;;;;;19.60;11.67;;;-0.80;99.90;;;;;;5033482;28;20217;-90
2022/01/19 07:19:14;;;;;;;19.20;12.13;;;-0.80;99.90;;;;;;5033230;28;20202;-90
2022/01/19 07:21:42;;;;;;;20.90;13.33;;;-0.70;99.90;;;;;;5037123;28;20275;-90
2022/01/19 07:24:08;;;;;;;28.07;16.10;;;-0.70;99.90;;;;;;5037251;28;20179;-89
2022/01/19 07:26:34;;;;;;;26.43;14.90;;;-0.80;99.90;;;;;;5037120;28;20186;-90
2022/01/19 07:29:02;;;;;;;21.70;11.70;;;-0.80;99.90;;;;;;5037174;28;20178;-89
2022/01/19 07:31:29;;;;;;;19.40;10.77;;;-0.80;99.90;;;;;;5036913;28;20211;-90
2022/01/19 07:34:00;;;;;;;18.23;11.07;;;-0.80;99.90;;;;;;5024139;28;20186;-89
2022/01/19 07:36:29;;;;;;;20.23;11.87;;;-0.80;99.90;;;;;;5033808;28;20182;-89
2022/01/19 07:38:55;;;;;;;16.93;11.87;;;-0.80;99.90;;;;;;5033261;28;20204;-90
2022/01/19 07:41:22;;;;;;;18.27;11.07;;;-0.80;99.90;;;;;;5033156;28;20280;-89
2022/01/19 07:43:52;;;;;;;18.67;11.77;;;-0.80;99.90;;;;;;5034749;28;20182;-83
2022/01/19 07:46:37;;;;;;;19.50;11.73;;;-0.70;99.90;;;;;;5048726;28;20268;-90
2022/01/19 07:49:39;;;;;;;20.30;11.87;;;-0.70;99.90;;;;;;5034497;28;20203;-90
2022/01/19 07:52:17;;;;;;;20.70;12.20;;;-0.70;99.90;;;;;;5032889;28;20215;-89
2022/01/19 07:54:58;;;;;;;15.73;9.73;;;-0.70;99.90;;;;;;5030852;28;20278;-90
2022/01/19 07:57:41;;;;;;;17.60;10.83;;;-0.60;99.90;;;;;;5016589;28;20261;-89
2022/01/19 08:00:38;;;;;;;18.83;11.03;;;-0.60;99.90;;;;;;5035055;28;20183;-90
2022/01/19 08:03:23;;;;;;;18.83;11.20;;;-0.50;99.90;;;;;;5055186;28;20208;-90
2022/01/19 08:05:57;;;;;;;18.20;11.63;;;-0.50;99.90;;;;;;5037170;28;20265;-89
2022/01/19 08:08:24;;;;;;;20.00;11.40;;;-0.40;99.90;;;;;;5036060;28;20277;-90
2022/01/19 08:10:50;;;;;;;21.73;11.90;;;-0.40;99.90;;;;;;5036176;28;20298;-90
2022/01/19 08:13:17;;;;;;;20.30;11.47;;;-0.40;99.90;;;;;;5052778;28;20663;-91
2022/01/19 08:15:44;;;;;;;21.67;14.30;;;-0.40;99.90;;;;;;5052476;28;20177;-87
2022/01/19 08:18:11;;;;;;;25.47;15.37;;;-0.30;99.90;;;;;;5036052;28;20210;-90
2022/01/19 08:20:40;;;;;;;26.57;14.13;;;-0.30;99.90;;;;;;5052425;28;20187;-90
2022/01/19 08:23:06;;;;;;;20.93;13.67;;;-0.20;99.90;;;;;;5048888;28;20210;-89
2022/01/19 08:25:44;;;;;;;21.90;13.80;;;-0.20;99.90;;;;;;5044574;28;20200;-89
2022/01/19 08:28:10;;;;;;;22.60;14.37;;;-0.10;99.90;;;;;;5046229;28;20176;-88
2022/01/19 08:30:37;;;;;;;20.33;13.53;;;-0.10;99.90;;;;;;5027785;28;20663;-90
2022/01/19 08:33:03;;;;;;;20.13;13.87;;;0.00;99.90;;;;;;5028979;28;20204;-90
2022/01/19 08:35:46;;;;;;;24.80;14.90;;;0.10;99.90;;;;;;5046408;28;20270;-90
2022/01/19 08:38:31;;;;;;;26.37;14.07;;;0.20;99.90;;;;;;5068630;28;20182;-90
2022/01/19 08:41:09;;;;;;;22.07;13.57;;;0.20;99.90;;;;;;5032831;28;20204;-90
2022/01/19 08:43:37;;;;;;;19.83;12.40;;;0.20;99.90;;;;;;5043775;28;20208;-90
2022/01/19 08:46:07;;;;;;;21.67;13.07;;;0.30;99.90;;;;;;5042823;28;20185;-91
2022/01/19 08:48:52;;;;;;;20.73;13.40;;;0.40;99.90;;;;;;5030888;28;20178;-91
2022/01/19 08:51:41;;;;;;;22.40;13.10;;;0.50;99.90;;;;;;5028477;28;20321;-90
2022/01/19 08:54:15;;;;;;;20.67;12.80;;;0.70;99.90;;;;;;5045140;28;20258;-90
2022/01/19 08:56:51;;;;;;;23.40;14.57;;;0.80;99.90;;;;;;5027947;28;20554;-90
2022/01/19 08:59:17;;;;;;;24.20;15.87;;;1.00;99.90;;;;;;5047304;28;20179;-91
2022/01/19 09:01:48;;;;;;;31.43;18.07;;;1.20;99.90;;;;;;5038278;28;20197;-90
2022/01/19 09:04:14;;;;;;;20.13;13.67;;;1.30;99.90;;;;;;5034317;28;20170;-90
2022/01/19 09:06:40;;;;;;;21.17;13.20;;;1.40;99.90;;;;;;5044273;28;20189;-90
2022/01/19 09:09:06;;;;;;;18.83;11.83;;;1.50;99.90;;;;;;5035078;28;20178;-91
2022/01/19 09:11:32;;;;;;;20.47;13.37;;;1.60;99.90;;;;;;5035019;28;20224;-91
2022/01/19 09:13:58;;;;;;;17.63;11.80;;;1.70;99.90;;;;;;5035217;28;20634;-90
2022/01/19 09:16:24;;;;;;;16.77;10.47;;;1.70;99.90;;;;;;5035022;28;20220;-91
2022/01/19 09:18:50;;;;;;;18.63;11.53;;;1.70;99.90;;;;;;5035244;28;20271;-91
2022/01/19 09:21:16;;;;;;;17.30;11.30;;;1.80;99.90;;;;;;5026544;28;20673;-90
2022/01/19 09:23:43;;;;;;;16.20;11.17;;;1.80;99.90;;;;;;5047214;28;20188;-91
2022/01/19 09:26:09;;;;;;;17.03;12.37;;;1.90;99.90;;;;;;5023150;28;20198;-91
2022/01/19 09:28:35;;;;;;;19.40;12.30;;;1.90;99.90;;;;;;5042176;28;20178;-90
2022/01/19 09:31:10;;;;;;;20.03;12.50;;;2.00;99.90;;;;;;5051113;28;20239;-91
2022/01/19 09:33:36;;;;;;;16.47;11.70;;;2.00;99.90;;;;;;5034599;28;20268;-90
2022/01/19 09:38:32;;;;;;;20.77;13.00;;;2.10;99.90;;;;;;5052954;28;20200;-90
2022/01/19 09:40:58;;;;;;;20.93;12.77;;;2.20;99.90;;;;;;5036208;28;20185;-91
2022/01/19 09:43:25;;;;;;;18.50;11.37;;;2.20;99.90;;;;;;5050328;28;20622;-90
2022/01/19 09:45:56;;;;;;;17.93;11.57;;;2.30;99.90;;;;;;5033891;28;20210;-91
2022/01/19 09:48:25;;;;;;;18.83;11.60;;;2.40;99.90;;;;;;5033938;28;20185;-90
2022/01/19 09:50:51;;;;;;;15.47;11.10;;;2.50;99.90;;;;;;5034052;28;20249;-90
2022/01/19 09:53:17;;;;;;;18.07;11.87;;;2.50;99.90;;;;;;5033670;28;20277;-90
2022/01/19 09:55:45;;;;;;;14.90;10.40;;;2.60;99.90;;;;;;5033760;28;20327;-90
2022/01/19 09:58:30;;;;;;;15.60;11.60;;;2.70;99.90;;;;;;5020514;28;20221;-90
2022/01/19 10:00:56;;;;;;;15.90;11.20;;;2.80;99.90;;;;;;5036069;28;20237;-90
2022/01/19 10:03:31;;;;;;;19.43;12.13;;;2.80;99.90;;;;;;5037304;28;20273;-90
2022/01/19 10:06:25;;;;;;;16.33;11.53;;;2.90;99.90;;;;;;5036284;28;20169;-90
2022/01/19 10:08:59;;;;;;;17.73;11.03;;;3.00;99.90;;;;;;5035607;28;20184;-90
2022/01/19 10:16:59;;;;;;;20.30;11.20;;;3.20;99.90;;;;;;5064123;28;20174;-90
2022/01/19 10:19:30;;;;;;;15.87;11.37;;;3.30;99.90;;;;;;5034663;28;20255;-90
2022/01/19 10:22:09;;;;;;;16.13;11.87;;;3.30;99.90;;;;;;5038387;28;20193;-90
2022/01/19 10:24:39;;;;;;;15.27;11.27;;;3.40;99.90;;;;;;5034770;28;20208;-90
2022/01/19 10:27:26;;;;;;;16.30;12.00;;;3.50;99.90;;;;;;5021745;28;20191;-91
2022/01/19 10:29:55;;;;;;;14.33;10.80;;;3.60;99.90;;;;;;5049667;28;20237;-90
2022/01/19 10:32:23;;;;;;;16.77;11.60;;;3.70;99.90;;;;;;5039223;28;20190;-91
2022/01/19 10:34:52;;;;;;;16.10;10.80;;;3.80;99.90;;;;;;5040592;28;20181;-90
2022/01/19 10:37:25;;;;;;;14.57;11.17;;;3.90;99.90;;;;;;5022322;28;20649;-90
2022/01/19 10:39:57;;;;;;;17.07;11.67;;;4.00;99.90;;;;;;5041485;28;20184;-90
2022/01/19 10:42:32;;;;;;;16.10;11.67;;;4.10;99.90;;;;;;5058158;28;20193;-90
2022/01/19 10:45:06;;;;;;;15.63;11.40;;;4.20;99.90;;;;;;5058300;28;20243;-90
2022/01/19 10:47:44;;;;;;;18.37;11.00;;;4.20;99.90;;;;;;5038863;28;20265;-91
2022/01/19 10:50:28;;;;;;;14.43;10.60;;;4.30;99.90;;;;;;5054992;28;20234;-90
2022/01/19 10:52:58;;;;;;;14.37;10.93;;;4.40;99.90;;;;;;5023874;28;20221;-90
2022/01/19 10:55:31;;;;;;;17.27;11.17;;;4.50;99.90;;;;;;5024407;28;20170;-90
2022/01/19 10:58:00;;;;;;;16.70;10.80;;;4.60;99.90;;;;;;5022996;28;20253;-90
2022/01/19 11:00:36;;;;;;;17.97;11.23;;;4.60;99.90;;;;;;5025968;28;20174;-90
2022/01/19 11:03:25;;;;;;;15.80;10.50;;;4.70;99.90;;;;;;5039579;28;20212;-91
2022/01/19 11:05:57;;;;;;;12.90;9.13;;;4.80;99.90;;;;;;5046375;28;20191;-90
2022/01/19 11:08:25;;;;;;;13.73;9.43;;;4.90;99.90;;;;;;5039083;28;20209;-91
2022/01/19 11:10:54;;;;;;;13.57;9.53;;;5.00;99.90;;;;;;5036537;28;20204;-91
2022/01/19 11:13:42;;;;;;;15.60;9.63;;;5.20;99.90;;;;;;5020027;28;20184;-90
2022/01/19 11:16:08;;;;;;;13.67;9.30;;;5.20;99.90;;;;;;5035294;28;20181;-90
2022/01/19 11:18:39;;;;;;;11.43;8.73;;;5.30;99.90;;;;;;5021060;28;20273;-90
2022/01/19 11:21:12;;;;;;;16.03;10.53;;;5.30;99.90;;;;;;5024773;28;20354;-90
2022/01/19 11:24:00;;;;;;;11.67;9.00;;;5.40;99.90;;;;;;5021401;28;20855;-91
2022/01/19 11:26:47;;;;;;;14.73;8.70;;;5.50;99.90;;;;;;5037450;28;20215;-91
2022/01/19 11:29:20;;;;;;;12.17;9.20;;;5.70;99.90;;;;;;5029596;28;20246;-90
2022/01/19 11:31:48;;;;;;;12.50;8.73;;;5.80;99.90;;;;;;5029614;28;20427;-77
2022/01/19 11:34:15;;;;;;;15.17;9.83;;;5.80;99.90;;;;;;5045292;28;20190;-78
2022/01/19 11:36:43;;;;;;;14.30;9.60;;;5.90;99.90;;;;;;5034460;28;20212;-77
2022/01/19 11:39:20;;;;;;;11.37;8.70;;;6.00;99.90;;;;;;5032288;28;20252;-77
2022/01/19 11:41:55;;;;;;;12.60;8.63;;;6.10;99.90;;;;;;5032856;28;20204;-77
2022/01/19 11:44:30;;;;;;;15.30;9.33;;;6.30;99.90;;;;;;5033032;28;20188;-78
2022/01/19 11:47:18;;;;;;;10.80;8.60;;;6.40;99.90;;;;;;5032656;28;20180;-78
2022/01/19 11:49:50;;;;;;;13.73;9.30;;;6.50;99.90;;;;;;5032244;28;20213;-78
2022/01/19 11:52:20;;;;;;;11.83;8.60;;;6.60;99.90;;;;;;5032397;28;20228;-78
2022/01/19 11:54:48;;;;;;;10.53;7.83;;;6.70;99.90;;;;;;5032890;28;20181;-78
2022/01/19 11:57:22;;;;;;;14.20;8.90;;;6.70;99.90;;;;;;5032459;28;20185;-78
2022/01/19 11:59:48;;;;;;;12.97;9.17;;;6.80;99.90;;;;;;5032746;28;20222;-78
2022/01/19 12:02:35;;;;;;;11.00;8.17;;;6.80;99.90;;;;;;5043298;28;20218;-78
2022/01/19 12:05:24;;;;;;;11.20;8.50;;;6.90;99.90;;;;;;5025743;28;20186;-78
2022/01/19 12:07:53;;;;;;;10.47;6.77;;;7.00;99.90;;;;;;5019928;28;20266;-78
2022/01/19 12:10:32;;;;;;;13.17;8.33;;;7.00;99.90;;;;;;5018673;28;20306;-90
2022/01/19 12:13:30;;;;;;;12.03;8.60;;;7.10;99.90;;;;;;5021631;28;20212;-90
2022/01/19 12:16:19;;;;;;;11.60;8.50;;;7.20;99.90;;;;;;5048155;28;20174;-90
2022/01/19 12:18:52;;;;;;;10.43;8.00;;;7.20;99.90;;;;;;5050672;28;20178;-90
2022/01/19 12:21:33;;;;;;;12.77;8.90;;;7.20;99.90;;;;;;5018342;28;20210;-90
2022/01/19 12:24:15;;;;;;;11.67;8.80;;;7.20;99.90;;;;;;5018063;28;20244;-91
2022/01/19 12:27:19;;;;;;;11.27;8.53;;;7.20;99.90;;;;;;5034874;28;20202;-90
2022/01/19 12:29:51;;;;;;;12.63;8.97;;;7.30;99.90;;;;;;5013506;28;20245;-90
2022/01/19 12:32:17;;;;;;;13.87;9.23;;;7.30;99.90;;;;;;5018214;28;20201;-90
2022/01/19 12:34:58;;;;;;;13.53;9.03;;;7.40;99.90;;;;;;5018308;28;20181;-90
2022/01/19 12:38:01;;;;;;;13.83;8.93;;;7.50;99.90;;;;;;5018243;28;20167;-88
2022/01/19 12:40:36;;;;;;;15.40;8.90;;;7.50;99.90;;;;;;5018293;28;20175;-90
2022/01/19 12:43:13;;;;;;;11.97;8.70;;;7.60;99.90;;;;;;5018176;28;20223;-90
2022/01/19 12:45:43;;;;;;;12.33;8.63;;;7.60;99.90;;;;;;5042003;28;20187;-90
2022/01/19 12:48:09;;;;;;;13.13;9.17;;;7.50;99.90;;;;;;5023372;28;20263;-90
2022/01/19 12:50:45;;;;;;;13.87;9.10;;;7.40;99.90;;;;;;5024307;28;20206;-90
2022/01/19 12:53:24;;;;;;;12.87;8.80;;;7.40;99.90;;;;;;5052806;28;20369;-91
2022/01/19 12:55:55;;;;;;;14.13;9.40;;;7.40;99.90;;;;;;5017920;28;20269;-91
2022/01/19 12:58:31;;;;;;;12.00;9.10;;;7.40;99.90;;;;;;5018261;28;20178;-90
2022/01/19 13:01:00;;;;;;;13.53;9.03;;;7.50;99.90;;;;;;5017504;28;20221;-90
2022/01/19 13:03:34;;;;;;;14.43;9.07;;;7.50;99.90;;;;;;5017928;28;20265;-90
2022/01/19 13:06:06;;;;;;;13.27;9.20;;;7.50;99.90;;;;;;5017927;28;20250;-90
2022/01/19 13:08:44;;;;;;;13.70;9.33;;;7.50;99.90;;;;;;5017376;28;20193;-90
2022/01/19 13:11:22;;;;;;;13.07;8.70;;;7.40;99.90;;;;;;5015444;28;20736;-91
2022/01/19 13:13:58;;;;;;;13.57;9.37;;;7.40;99.90;;;;;;5017068;28;20198;-90
2022/01/19 13:16:34;;;;;;;14.27;9.20;;;7.40;99.90;;;;;;5017945;28;20174;-90
2022/01/19 13:19:12;;;;;;;13.57;9.03;;;7.30;99.90;;;;;;5016251;28;20182;-90
2022/01/19 13:21:40;;;;;;;15.40;9.10;;;7.20;99.90;;;;;;5015299;28;20235;-91
2022/01/19 13:24:16;;;;;;;13.47;9.33;;;7.30;99.90;;;;;;5014721;28;20190;-90
2022/01/19 13:26:52;;;;;;;11.90;8.83;;;7.20;99.90;;;;;;5014591;28;20193;-90
2022/01/19 13:29:39;;;;;;;12.70;9.23;;;7.10;99.90;;;;;;5014780;28;20215;-90
2022/01/19 13:32:09;;;;;;;15.23;10.87;;;7.00;99.90;;;;;;4998622;28;20222;-90
2022/01/19 13:34:55;;;;;;;13.07;9.27;;;7.00;99.90;;;;;;5049228;28;20247;-90
2022/01/19 13:37:32;;;;;;;14.53;9.63;;;7.10;99.90;;;;;;5034300;28;20178;-90
2022/01/19 13:40:08;;;;;;;12.80;9.07;;;7.10;99.90;;;;;;5034430;28;20194;-91
2022/01/19 13:42:42;;;;;;;15.30;9.53;;;7.10;99.90;;;;;;5034475;28;20206;-91
2022/01/19 13:45:36;;;;;;;12.40;9.60;;;7.10;99.90;;;;;;5034127;28;20192;-91
2022/01/19 13:50:35;;;;;;;14.80;9.63;;;7.00;99.90;;;;;;5050609;28;20217;-90
2022/01/19 13:53:02;;;;;;;16.20;9.63;;;6.80;99.90;;;;;;5033917;28;20217;-90
2022/01/19 13:55:29;;;;;;;16.43;9.77;;;6.60;99.90;;;;;;5034178;28;20174;-91
2022/01/19 13:58:10;;;;;;;14.37;9.80;;;6.40;99.90;;;;;;5033981;28;20180;-91
2022/01/19 14:00:47;;;;;;;12.90;9.47;;;6.20;99.90;;;;;;5034106;28;20195;-90
2022/01/19 14:03:13;;;;;;;14.00;9.57;;;6.00;99.90;;;;;;5033752;28;20215;-90
2022/01/19 14:05:46;;;;;;;14.10;10.13;;;5.90;99.90;;;;;;5050193;28;20193;-91
2022/01/19 14:08:13;;;;;;;15.37;10.67;;;5.80;99.90;;;;;;5033726;28;20181;-90
2022/01/19 14:10:49;;;;;;;15.77;9.80;;;5.60;99.90;;;;;;5034099;28;20218;-90
2022/01/19 14:13:26;;;;;;;12.93;9.67;;;5.60;99.90;;;;;;5033801;28;20172;-90
2022/01/19 14:15:53;;;;;;;15.37;10.63;;;5.50;99.90;;;;;;5033818;28;20250;-90
2022/01/19 14:18:19;;;;;;;14.37;9.97;;;5.50;99.90;;;;;;5033396;28;20187;-90
2022/01/19 14:20:45;;;;;;;11.73;8.27;;;5.50;99.90;;;;;;5033866;28;20175;-90
2022/01/19 14:23:15;;;;;;;11.27;8.10;;;5.50;99.90;;;;;;5033658;28;20210;-91
2022/01/19 14:25:43;;;;;;;12.20;9.30;;;5.50;99.90;;;;;;5024701;28;20192;-90
2022/01/19 14:28:15;;;;;;;14.87;9.37;;;5.40;99.90;;;;;;5023355;28;20265;-90
2022/01/19 14:30:42;;;;;;;15.70;10.20;;;5.30;99.90;;;;;;5048137;28;20198;-90
2022/01/19 14:33:12;;;;;;;14.93;10.10;;;5.20;99.90;;;;;;5024446;28;20180;-90
2022/01/19 14:35:41;;;;;;;14.73;10.13;;;5.20;99.90;;;;;;5043782;28;20176;-90
2022/01/19 14:38:25;;;;;;;15.90;10.47;;;5.20;99.90;;;;;;5022222;28;20182;-90